Terminal Aerodrome Forecast
Issued by NWS

Home | Current Version | Previous Version | Graphics & Text | Print | Product List | Glossary On
Versions: 1 2 3 4 5 6 7 8 9 10 11 12 13 14 15 16 17 18 19 20 21 22 23 24 25 26
535
FTUS43 KOAX 221958 AAA
TAFCDR
TAF AMD
KCDR 221958Z 2220/2318 07007KT P6SM BKN030
     FM230300 09014KT P6SM OVC025
     FM230700 17009KT 4SM BR BKN005 OVC020
     FM231200 08007KT 2SM BR OVC002=

USA.gov is the U.S. government's official web portal to all federal, state and local government web resources and services.